createdAt,value
2022-09-01T00:00:11.272Z,70.60
2022-09-01T00:02:38.794Z,70.80
2022-09-01T00:05:07.799Z,70.80
2022-09-01T00:07:35.612Z,70.90
2022-09-01T00:10:07.592Z,70.70
2022-09-01T00:12:35.492Z,70.60
2022-09-01T00:15:05.229Z,70.70
2022-09-01T00:17:34.435Z,70.60
2022-09-01T00:20:02.306Z,70.70
2022-09-01T00:22:29.866Z,71.30
2022-09-01T00:24:57.341Z,70.60
2022-09-01T00:27:27.948Z,70.60
2022-09-01T00:30:00.131Z,70.80
2022-09-01T00:32:28.590Z,70.60
2022-09-01T00:34:56.311Z,70.50
2022-09-01T00:37:23.793Z,70.30
2022-09-01T00:39:51.541Z,70.30
2022-09-01T00:42:19.475Z,70.30
2022-09-01T00:44:47.057Z,70.30
2022-09-01T00:47:15.073Z,70.30
2022-09-01T00:49:47.084Z,70.20
2022-09-01T00:52:22.531Z,70.00
2022-09-01T00:54:59.984Z,69.90
2022-09-01T00:57:28.096Z,69.70
2022-09-01T01:00:08.914Z,70.00
2022-09-01T01:02:37.234Z,69.90
2022-09-01T01:05:06.500Z,69.90
2022-09-01T01:07:41.726Z,70.10
2022-09-01T01:10:14.886Z,70.30
2022-09-01T01:12:43.936Z,70.10
2022-09-01T01:15:17.279Z,70.00
2022-09-01T01:17:45.130Z,69.90
2022-09-01T01:20:35.567Z,69.80
2022-09-01T01:23:37.199Z,70.60
2022-09-01T01:26:09.450Z,70.00
2022-09-01T01:28:41.598Z,70.00
2022-09-01T01:31:19.573Z,70.30
2022-09-01T01:33:56.807Z,70.50
2022-09-01T01:36:33.987Z,70.80
2022-09-01T01:39:06.847Z,70.70
2022-09-01T01:41:37.639Z,70.90
2022-09-01T01:44:05.413Z,71.40
2022-09-01T01:46:37.204Z,71.70
2022-09-01T01:49:05.690Z,72.20
2022-09-01T01:51:33.103Z,72.60
2022-09-01T01:54:02.247Z,72.80
2022-09-01T01:56:29.539Z,72.90
2022-09-01T01:58:57.863Z,73.20
2022-09-01T02:01:29.341Z,73.30
2022-09-01T02:04:00.361Z,73.50
2022-09-01T02:06:29.545Z,73.70
2022-09-01T02:08:58.341Z,73.70
2022-09-01T02:11:26.471Z,73.50
2022-09-01T02:13:58.970Z,74.00
2022-09-01T02:16:29.240Z,74.80
2022-09-01T02:18:56.900Z,74.90
2022-09-01T02:21:35.203Z,75.20
2022-09-01T02:24:08.535Z,76.00
2022-09-01T02:26:45.932Z,76.60
2022-09-01T02:29:22.013Z,77.10
2022-09-01T02:31:53.633Z,77.20
2022-09-01T02:34:24.239Z,77.60
2022-09-01T02:36:54.186Z,77.70
2022-09-01T02:39:30.204Z,78.10
2022-09-01T02:41:57.529Z,78.60
2022-09-01T02:44:25.095Z,78.80
2022-09-01T02:46:52.332Z,79.20
2022-09-01T02:49:28.356Z,79.60
2022-09-01T02:52:01.567Z,79.80
2022-09-01T02:54:31.441Z,81.40
2022-09-01T02:56:59.132Z,80.90
2022-09-01T02:59:29.979Z,81.20
2022-09-01T03:01:58.822Z,81.40
2022-09-01T03:04:27.411Z,81.60
2022-09-01T03:06:55.202Z,81.60
2022-09-01T03:09:23.455Z,81.90
2022-09-01T03:11:54.590Z,81.90
2022-09-01T03:14:24.346Z,82.00
2022-09-01T03:16:52.618Z,82.10
2022-09-01T03:19:20.359Z,82.00
2022-09-01T03:21:50.104Z,82.40
2022-09-01T03:24:19.092Z,82.40
2022-09-01T03:26:50.413Z,82.40
2022-09-01T03:29:19.166Z,82.50
2022-09-01T03:31:47.251Z,82.60
2022-09-01T03:34:16.605Z,82.60
2022-09-01T03:36:50.675Z,83.00
2022-09-01T03:39:19.506Z,83.00
2022-09-01T03:41:47.158Z,82.90
2022-09-01T03:44:16.524Z,83.00
2022-09-01T03:46:45.043Z,83.20
2022-09-01T03:49:15.702Z,83.40
2022-09-01T03:51:45.280Z,83.90
2022-09-01T03:54:13.879Z,84.00
2022-09-01T03:56:41.798Z,84.30
2022-09-01T03:59:16.974Z,84.30
2022-09-01T04:01:45.867Z,84.40
2022-09-01T04:04:14.106Z,84.30
2022-09-01T04:06:44.522Z,84.60
2022-09-01T04:09:12.981Z,84.70
2022-09-01T04:11:45.863Z,84.80
2022-09-01T04:14:14.319Z,85.00
2022-09-01T04:17:00.087Z,85.20
2022-09-01T04:19:28.191Z,85.40
2022-09-01T04:22:00.240Z,85.30
2022-09-01T04:24:31.151Z,85.30
2022-09-01T04:27:02.383Z,85.40
2022-09-01T04:29:32.091Z,85.40
2022-09-01T04:32:07.549Z,85.60
2022-09-01T04:34:38.502Z,85.60
2022-09-01T04:37:19.503Z,85.60
2022-09-01T04:39:55.714Z,85.60
2022-09-01T04:42:27.405Z,86.00
2022-09-01T04:44:57.975Z,85.90
2022-09-01T04:47:36.045Z,87.20
2022-09-01T04:50:13.083Z,86.40
2022-09-01T04:52:42.250Z,87.80
2022-09-01T04:55:17.639Z,87.50
2022-09-01T04:57:47.570Z,87.90
2022-09-01T05:00:22.716Z,88.50
2022-09-01T05:03:04.862Z,88.10
2022-09-01T05:05:45.321Z,87.90
2022-09-01T05:08:23.862Z,87.60
2022-09-01T05:10:55.711Z,87.60
2022-09-01T05:13:23.743Z,88.30
2022-09-01T05:16:02.323Z,88.10
2022-09-01T05:18:29.688Z,88.00
2022-09-01T05:20:58.469Z,88.30
2022-09-01T05:23:26.802Z,88.10
2022-09-01T05:25:55.027Z,87.80
2022-09-01T05:28:25.443Z,87.40
2022-09-01T05:30:54.341Z,87.00
2022-09-01T05:33:22.224Z,86.80
2022-09-01T05:35:55.667Z,86.30
2022-09-01T05:38:25.728Z,86.20
2022-09-01T05:41:03.802Z,85.70
2022-09-01T05:43:32.523Z,85.40
2022-09-01T05:46:06.900Z,85.30
2022-09-01T05:48:38.509Z,85.20
2022-09-01T05:51:27.534Z,84.70
2022-09-01T05:54:02.016Z,84.80
2022-09-01T05:56:30.805Z,84.20
2022-09-01T06:01:50.423Z,84.00
2022-09-01T06:04:18.120Z,84.30
2022-09-01T06:07:06.054Z,84.00
2022-09-01T06:09:43.344Z,83.60
2022-09-01T06:12:18.095Z,82.90
2022-09-01T06:14:47.559Z,82.90
2022-09-01T06:17:16.742Z,82.30
2022-09-01T06:19:44.346Z,81.80
2022-09-01T06:22:11.574Z,81.90
2022-09-01T06:24:44.883Z,81.50
2022-09-01T06:27:12.778Z,81.30
2022-09-01T06:29:40.957Z,81.40
2022-09-01T06:32:10.575Z,81.50
2022-09-01T06:34:44.574Z,80.90
2022-09-01T06:37:13.423Z,80.00
2022-09-01T06:39:40.708Z,79.10
2022-09-01T06:42:09.590Z,79.80
2022-09-01T06:44:40.567Z,79.30
2022-09-01T06:47:09.266Z,78.40
2022-09-01T06:49:36.860Z,77.30
2022-09-01T06:52:04.872Z,76.40
2022-09-01T06:54:35.713Z,77.10
2022-09-01T06:59:54.247Z,76.40
2022-09-01T07:02:27.044Z,75.80
2022-09-01T07:04:55.063Z,75.00
2022-09-01T07:10:23.541Z,74.70
2022-09-01T07:18:35.279Z,72.90
2022-09-01T07:21:36.642Z,72.30
2022-09-01T07:24:13.208Z,72.60
2022-09-01T07:26:47.205Z,71.70
2022-09-01T07:29:15.075Z,71.20
2022-09-01T07:31:52.223Z,71.80
2022-09-01T07:34:39.544Z,72.20
2022-09-01T07:39:56.204Z,70.70
2022-09-01T07:42:59.098Z,74.90
2022-09-01T07:45:28.875Z,69.70
2022-09-01T07:48:00.274Z,69.50
2022-09-01T07:53:22.664Z,69.00
2022-09-01T07:55:54.935Z,66.90
2022-09-01T07:58:25.321Z,67.60
2022-09-01T08:00:54.504Z,66.80
2022-09-01T08:03:24.816Z,66.30
2022-09-01T08:05:57.819Z,65.10
2022-09-01T08:08:28.960Z,64.60
2022-09-01T08:11:04.323Z,64.70
2022-09-01T08:13:41.692Z,66.10
2022-09-01T08:16:17.999Z,62.50
2022-09-01T08:18:48.833Z,62.60
2022-09-01T08:21:22.162Z,60.40
2022-09-01T08:23:54.213Z,60.70
2022-09-01T08:26:24.347Z,61.70
2022-09-01T08:28:55.428Z,61.10
2022-09-01T08:31:24.775Z,60.70
2022-09-01T08:33:52.271Z,60.70
2022-09-01T08:36:23.661Z,60.50
2022-09-01T08:38:54.069Z,59.90
2022-09-01T08:41:56.575Z,58.20
2022-09-01T08:44:59.374Z,58.30
2022-09-01T08:47:39.375Z,59.90
2022-09-01T08:50:12.355Z,58.90
2022-09-01T08:52:45.820Z,58.10
2022-09-01T08:55:47.491Z,59.20
2022-09-01T08:58:18.021Z,59.00
2022-09-01T09:00:55.107Z,58.30
2022-09-01T09:03:40.968Z,59.00
2022-09-01T09:06:29.932Z,58.80
2022-09-01T09:09:03.683Z,55.90
2022-09-01T09:11:56.010Z,54.30
2022-09-01T09:14:46.568Z,53.80
2022-09-01T09:17:19.011Z,53.60
2022-09-01T09:19:46.781Z,50.60
2022-09-01T09:22:18.089Z,51.30
2022-09-01T09:25:03.253Z,52.10
2022-09-01T09:27:37.365Z,51.80
2022-09-01T09:30:13.815Z,52.40
2022-09-01T09:33:46.687Z,52.00
2022-09-01T09:35:48.872Z,49.50
2022-09-01T09:38:33.425Z,48.10
2022-09-01T09:41:17.280Z,49.10
2022-09-01T09:43:47.827Z,50.60
2022-09-01T09:46:34.579Z,49.70
2022-09-01T09:49:16.904Z,49.80
2022-09-01T09:51:49.423Z,47.90
2022-09-01T09:54:21.415Z,50.00
2022-09-01T09:57:03.432Z,50.40
2022-09-01T09:59:57.801Z,50.10
2022-09-01T10:02:42.601Z,47.10
2022-09-01T10:05:42.816Z,49.70
2022-09-01T10:08:34.959Z,47.70
2022-09-01T10:11:04.203Z,45.80
2022-09-01T10:13:35.598Z,44.90
2022-09-01T10:16:13.747Z,46.20
2022-09-01T10:18:44.917Z,45.60
2022-09-01T10:21:26.902Z,46.10
2022-09-01T10:23:54.963Z,45.00
2022-09-01T10:26:43.290Z,45.00
2022-09-01T10:29:19.640Z,44.80
2022-09-01T10:31:46.913Z,43.10
2022-09-01T10:34:19.630Z,42.10
2022-09-01T10:36:54.957Z,42.70
2022-09-01T10:39:28.655Z,42.80
2022-09-01T10:42:09.773Z,43.10
2022-09-01T10:44:58.884Z,43.40
2022-09-01T10:47:38.010Z,43.50
2022-09-01T10:50:29.422Z,42.50
2022-09-01T10:53:05.187Z,41.70
2022-09-01T10:55:41.598Z,42.40
2022-09-01T11:01:48.373Z,41.80
2022-09-01T11:04:22.201Z,42.20
2022-09-01T11:09:57.242Z,42.30
2022-09-01T11:12:48.752Z,43.20
2022-09-01T11:15:17.043Z,42.80
2022-09-01T11:17:53.283Z,43.00
2022-09-01T11:20:36.104Z,43.40
2022-09-01T11:23:12.299Z,43.50
2022-09-01T11:25:44.746Z,43.20
2022-09-01T11:28:15.154Z,43.30
2022-09-01T11:30:55.160Z,42.00
2022-09-01T11:33:53.306Z,41.60
2022-09-01T11:36:28.805Z,42.30
2022-09-01T11:39:19.023Z,42.40
2022-09-01T11:42:04.789Z,42.40
2022-09-01T11:44:44.795Z,41.20
2022-09-01T11:47:17.248Z,42.10
2022-09-01T11:49:58.276Z,42.40
2022-09-01T11:52:34.925Z,42.30
2022-09-01T11:55:04.973Z,43.00
2022-09-01T11:57:38.655Z,42.70
2022-09-01T12:00:14.452Z,42.10
2022-09-01T12:02:49.518Z,41.80
2022-09-01T12:05:27.747Z,42.00
2022-09-01T12:07:56.043Z,41.80
2022-09-01T12:10:36.471Z,42.20
2022-09-01T12:13:12.383Z,42.60
2022-09-01T12:16:00.768Z,42.80
2022-09-01T12:18:39.846Z,43.00
2022-09-01T12:21:10.863Z,42.40
2022-09-01T12:23:45.979Z,42.40
2022-09-01T12:26:18.137Z,42.80
2022-09-01T12:28:49.059Z,42.50
2022-09-01T12:31:24.451Z,42.40
2022-09-01T12:33:53.811Z,42.60
2022-09-01T12:36:37.299Z,41.80
2022-09-01T12:39:25.054Z,42.90
2022-09-01T12:42:30.025Z,43.20
2022-09-01T12:45:10.915Z,43.40
2022-09-01T12:47:40.433Z,43.80
2022-09-01T12:50:07.470Z,44.00
2022-09-01T12:52:36.763Z,44.00
2022-09-01T12:55:06.492Z,44.00
2022-09-01T12:57:39.107Z,44.10
2022-09-01T13:00:32.422Z,44.20
2022-09-01T13:03:03.986Z,44.20
2022-09-01T13:05:42.222Z,44.50
2022-09-01T13:08:12.958Z,44.60
2022-09-01T13:10:51.665Z,44.80
2022-09-01T13:13:19.940Z,44.80
2022-09-01T13:15:50.314Z,44.70
2022-09-01T13:18:19.287Z,44.60
2022-09-01T13:20:46.589Z,45.00
2022-09-01T13:23:14.596Z,44.80
2022-09-01T13:25:44.456Z,44.40
2022-09-01T13:28:12.551Z,44.30
2022-09-01T13:30:40.347Z,44.40
2022-09-01T13:33:23.681Z,44.50
2022-09-01T13:35:52.068Z,44.40
2022-09-01T13:38:20.099Z,44.80
2022-09-01T13:40:49.187Z,45.00
2022-09-01T13:43:22.734Z,45.00
2022-09-01T13:45:51.647Z,45.00
2022-09-01T13:48:20.072Z,45.10
2022-09-01T13:53:40.049Z,44.80
2022-09-01T13:56:07.353Z,44.40
2022-09-01T13:58:34.840Z,43.90
2022-09-01T14:01:02.099Z,44.40
2022-09-01T14:03:32.141Z,44.40
2022-09-01T14:05:59.619Z,44.30
2022-09-01T14:08:26.982Z,44.30
2022-09-01T14:10:54.400Z,44.60
2022-09-01T14:13:23.868Z,44.80
2022-09-01T14:15:53.642Z,44.60
2022-09-01T14:18:22.443Z,44.60
2022-09-01T14:20:51.801Z,44.60
2022-09-01T14:23:20.104Z,44.60
2022-09-01T14:25:50.442Z,44.90
2022-09-01T14:28:20.185Z,44.90
2022-09-01T14:33:17.141Z,44.20
2022-09-01T14:35:47.679Z,44.50
2022-09-01T14:38:15.659Z,44.40
2022-09-01T14:40:44.243Z,44.40
2022-09-01T14:43:16.149Z,44.30
2022-09-01T14:45:48.273Z,44.10
2022-09-01T14:48:20.731Z,44.10
2022-09-01T14:50:50.138Z,44.30
2022-09-01T14:53:17.624Z,44.40
2022-09-01T14:55:44.811Z,44.40
2022-09-01T14:58:18.211Z,44.40
2022-09-01T15:00:45.494Z,44.40
2022-09-01T15:03:15.225Z,44.40
2022-09-01T15:05:51.110Z,43.80
2022-09-01T15:08:19.211Z,44.00
2022-09-01T15:10:46.968Z,44.10
2022-09-01T15:13:14.173Z,44.80
2022-09-01T15:15:41.659Z,44.40
2022-09-01T15:18:08.882Z,43.90
2022-09-01T15:20:45.822Z,44.30
2022-09-01T15:23:16.871Z,44.50
2022-09-01T15:25:44.572Z,44.60
2022-09-01T15:28:12.131Z,44.50
2022-09-01T15:30:40.567Z,44.30
2022-09-01T15:33:13.233Z,44.50
2022-09-01T15:35:44.981Z,44.10
2022-09-01T15:38:17.922Z,43.90
2022-09-01T15:40:55.390Z,44.30
2022-09-01T15:43:26.873Z,43.80
2022-09-01T15:45:54.681Z,44.00
2022-09-01T15:48:21.782Z,43.60
2022-09-01T15:50:50.533Z,43.50
2022-09-01T15:53:19.021Z,43.70
2022-09-01T15:55:49.906Z,43.80
2022-09-01T15:58:19.488Z,43.80
2022-09-01T16:00:47.076Z,43.70
2022-09-01T16:03:14.327Z,43.80
2022-09-01T16:05:41.653Z,43.90
2022-09-01T16:08:11.586Z,43.90
2022-09-01T16:10:42.273Z,44.00
2022-09-01T16:13:13.121Z,44.10
2022-09-01T16:15:47.382Z,44.20
2022-09-01T16:18:45.917Z,44.20
2022-09-01T16:21:26.928Z,44.30
2022-09-01T16:23:54.146Z,44.10
2022-09-01T16:26:23.287Z,44.30
2022-09-01T16:28:54.298Z,44.40
2022-09-01T16:31:25.640Z,44.50
2022-09-01T16:33:56.218Z,44.30
2022-09-01T16:36:26.545Z,44.30
2022-09-01T16:39:12.131Z,44.40
2022-09-01T16:42:04.673Z,43.40
2022-09-01T16:44:53.457Z,43.20
2022-09-01T16:47:51.509Z,43.30
2022-09-01T16:50:27.722Z,43.40
2022-09-01T16:53:09.923Z,43.40
2022-09-01T16:56:09.189Z,43.40
2022-09-01T16:58:52.318Z,43.20
2022-09-01T17:01:30.343Z,43.20
2022-09-01T17:04:25.978Z,43.30
2022-09-01T17:07:19.209Z,43.30
2022-09-01T17:09:57.364Z,43.70
2022-09-01T17:12:39.464Z,43.80
2022-09-01T17:15:18.021Z,44.10
2022-09-01T17:17:55.262Z,44.30
2022-09-01T17:20:28.063Z,44.50
2022-09-01T17:22:59.289Z,44.70
2022-09-01T17:25:37.704Z,44.70
2022-09-01T17:28:11.763Z,44.60
2022-09-01T17:30:48.937Z,44.90
2022-09-01T17:33:27.435Z,45.00
2022-09-01T17:36:07.334Z,44.90
2022-09-01T17:38:48.174Z,45.00
2022-09-01T17:41:41.378Z,45.00
2022-09-01T17:44:22.675Z,45.10
2022-09-01T17:46:58.912Z,45.20
2022-09-01T17:49:34.576Z,45.30
2022-09-01T17:52:41.866Z,45.90
2022-09-01T17:55:20.887Z,45.50
2022-09-01T17:58:05.182Z,45.60
2022-09-01T18:00:40.738Z,45.60
2022-09-01T18:03:22.981Z,45.70
2022-09-01T18:06:10.492Z,46.00
2022-09-01T18:08:46.248Z,46.10
2022-09-01T18:11:17.610Z,46.20
2022-09-01T18:13:53.373Z,46.20
2022-09-01T18:16:36.727Z,46.50
2022-09-01T18:19:12.143Z,46.30
2022-09-01T18:21:49.275Z,46.60
2022-09-01T18:24:22.385Z,46.80
2022-09-01T18:26:51.837Z,46.90
2022-09-01T18:29:19.806Z,46.60
2022-09-01T18:31:54.597Z,46.70
2022-09-01T18:34:54.900Z,46.70
2022-09-01T18:37:41.746Z,46.90
2022-09-01T18:40:21.915Z,47.00
2022-09-01T18:43:14.200Z,47.00
2022-09-01T18:45:47.573Z,47.00
2022-09-01T18:48:40.486Z,47.10
2022-09-01T18:51:48.915Z,47.00
2022-09-01T18:54:23.142Z,47.00
2022-09-01T18:57:07.835Z,47.10
2022-09-01T18:59:58.002Z,47.20
2022-09-01T19:02:56.282Z,47.40
2022-09-01T19:05:45.602Z,47.40
2022-09-01T19:08:50.952Z,47.70
2022-09-01T19:11:30.266Z,47.60
2022-09-01T19:14:42.877Z,47.90
2022-09-01T19:17:24.634Z,48.00
2022-09-01T19:19:59.962Z,48.10
2022-09-01T19:22:37.312Z,48.00
2022-09-01T19:25:27.882Z,48.00
2022-09-01T19:28:20.527Z,48.10
2022-09-01T19:30:59.354Z,48.20
2022-09-01T19:33:34.660Z,48.50
2022-09-01T19:36:09.189Z,48.70
2022-09-01T19:38:37.406Z,48.50
2022-09-01T19:41:28.414Z,48.80
2022-09-01T19:44:13.848Z,48.70
2022-09-01T19:46:51.680Z,48.70
2022-09-01T19:49:32.544Z,48.50
2022-09-01T19:52:37.774Z,48.50
2022-09-01T19:55:31.717Z,48.50
2022-09-01T19:58:16.185Z,48.40
2022-09-01T20:01:03.479Z,48.40
2022-09-01T20:03:37.902Z,48.40
2022-09-01T20:06:24.071Z,48.60
2022-09-01T20:09:05.826Z,49.00
2022-09-01T20:11:43.438Z,49.40
2022-09-01T20:14:14.221Z,49.30
2022-09-01T20:16:48.662Z,49.40
2022-09-01T20:19:34.827Z,49.90
2022-09-01T20:22:32.381Z,50.30
2022-09-01T20:25:28.616Z,49.90
2022-09-01T20:28:03.241Z,50.00
2022-09-01T20:30:40.063Z,50.60
2022-09-01T20:33:28.714Z,51.50
2022-09-01T20:36:07.857Z,51.20
2022-09-01T20:39:15.734Z,51.90
2022-09-01T20:42:24.876Z,51.60
2022-09-01T20:45:11.722Z,52.50
2022-09-01T20:47:38.903Z,52.10
2022-09-01T20:50:13.942Z,52.00
2022-09-01T20:53:10.031Z,52.70
2022-09-01T20:55:47.938Z,52.20
2022-09-01T20:58:20.903Z,52.20
2022-09-01T21:00:55.230Z,52.40
2022-09-01T21:03:50.197Z,52.60
2022-09-01T21:06:53.544Z,52.90
2022-09-01T21:09:42.971Z,53.10
2022-09-01T21:12:16.397Z,53.00
2022-09-01T21:14:52.747Z,52.80
2022-09-01T21:17:32.108Z,53.60
2022-09-01T21:20:30.882Z,53.90
2022-09-01T21:22:58.532Z,54.30
2022-09-01T21:25:25.708Z,54.30
2022-09-01T21:27:59.022Z,54.20
2022-09-01T21:30:31.009Z,54.70
2022-09-01T21:32:59.247Z,55.20
2022-09-01T21:35:26.532Z,55.00
2022-09-01T21:37:53.848Z,55.00
2022-09-01T21:40:24.243Z,55.00
2022-09-01T21:42:56.686Z,54.90
2022-09-01T21:45:24.842Z,55.60
2022-09-01T21:47:53.344Z,54.70
2022-09-01T21:50:23.947Z,54.80
2022-09-01T21:52:51.397Z,55.00
2022-09-01T21:55:22.996Z,54.70
2022-09-01T21:57:51.949Z,55.10
2022-09-01T22:00:23.990Z,55.00
2022-09-01T22:02:53.966Z,56.00
2022-09-01T22:05:26.238Z,55.10
2022-09-01T22:07:54.248Z,55.60
2022-09-01T22:10:25.647Z,55.70
2022-09-01T22:12:53.603Z,56.00
2022-09-01T22:15:23.222Z,56.10
2022-09-01T22:17:51.778Z,56.20
2022-09-01T22:20:22.422Z,56.30
2022-09-01T22:22:51.522Z,57.00
2022-09-01T22:25:21.502Z,56.90
2022-09-01T22:27:49.975Z,56.40
2022-09-01T22:30:18.646Z,56.60
2022-09-01T22:32:46.979Z,56.40
2022-09-01T22:35:16.357Z,56.70
2022-09-01T22:37:43.757Z,56.20
2022-09-01T22:40:12.455Z,56.00
2022-09-01T22:42:41.447Z,56.00
2022-09-01T22:45:10.295Z,56.20
2022-09-01T22:47:38.398Z,56.70
2022-09-01T22:50:07.947Z,56.90
2022-09-01T22:52:36.006Z,56.40
2022-09-01T22:55:05.387Z,56.20
2022-09-01T22:57:32.578Z,56.10
2022-09-01T23:00:01.015Z,56.20
2022-09-01T23:02:30.325Z,56.40
2022-09-01T23:04:57.769Z,56.30
2022-09-01T23:07:24.948Z,56.30
2022-09-01T23:09:52.021Z,56.30
2022-09-01T23:12:19.114Z,56.80
2022-09-01T23:14:46.258Z,57.70
2022-09-01T23:17:13.514Z,56.80
2022-09-01T23:19:41.385Z,56.70
2022-09-01T23:22:08.810Z,56.70
2022-09-01T23:24:35.998Z,56.70
2022-09-01T23:27:03.609Z,57.50
2022-09-01T23:29:31.065Z,56.70
2022-09-01T23:31:58.229Z,57.30
2022-09-01T23:34:25.496Z,57.00
2022-09-01T23:36:52.628Z,57.80
2022-09-01T23:39:19.719Z,57.40
2022-09-01T23:41:49.323Z,57.40
2022-09-01T23:44:16.761Z,58.00
2022-09-01T23:46:45.886Z,57.90
2022-09-01T23:49:15.613Z,58.00
2022-09-01T23:51:44.023Z,58.30
2022-09-01T23:54:12.083Z,58.70
2022-09-01T23:56:40.321Z,58.40
2022-09-01T23:59:07.864Z,58.60
